Time;durP1;ratioP1;P1;durP2;ratioP2;P2;SDS_P1;SDS_P2;PMS_P1;PMS_P2;Temp;Humidity;BMP_temperature;BMP_pressure;BME280_temperature;BME280_humidity;BME280_pressure;Samples;Min_cycle;Max_cycle;Signal;HPM_P1;HPM_P2
2022/08/06 00:02:15;;;;;;;3.88;1.85;;;;;;;10.39;100.00;101503.22;5069838;28;20101;-71
2022/08/06 00:04:40;;;;;;;5.63;2.03;;;;;;;10.44;100.00;101506.56;5056623;28;20028;-72
2022/08/06 00:07:06;;;;;;;3.42;1.88;;;;;;;10.44;100.00;101509.19;5088470;28;20044;-72
2022/08/06 00:09:32;;;;;;;5.05;2.10;;;;;;;10.43;100.00;101510.97;5085106;28;20023;-72
2022/08/06 00:12:02;;;;;;;5.90;1.75;;;;;;;10.46;100.00;101525.75;5078765;28;20033;-72
2022/08/06 00:14:27;;;;;;;7.68;2.42;;;;;;;10.40;100.00;101516.31;5109163;28;20039;-72
2022/08/06 00:16:53;;;;;;;6.55;2.00;;;;;;;10.31;100.00;101507.88;5086648;28;20024;-72
2022/08/06 00:19:18;;;;;;;5.10;2.10;;;;;;;10.33;100.00;101519.19;5093336;28;20027;-72
2022/08/06 00:21:44;;;;;;;6.28;2.10;;;;;;;10.34;100.00;101523.53;5065849;28;20371;-72
2022/08/06 00:24:09;;;;;;;7.75;1.80;;;;;;;10.27;100.00;101531.59;5104360;28;20027;-72
2022/08/06 00:26:37;;;;;;;5.05;1.65;;;;;;;10.33;100.00;101537.56;5060983;28;20489;-72
2022/08/06 00:29:03;;;;;;;6.15;1.88;;;;;;;9.93;100.00;101493.25;5057308;28;20035;-72
2022/08/06 00:31:28;;;;;;;11.00;2.90;;;;;;;9.69;100.00;101473.81;5073557;28;20052;-72
2022/08/06 00:33:55;;;;;;;4.00;1.70;;;;;;;9.97;100.00;101519.34;5074427;28;20028;-72
2022/08/06 00:36:22;;;;;;;6.28;2.25;;;;;;;9.97;100.00;101524.59;5074496;28;20048;-72
2022/08/06 00:38:47;;;;;;;5.47;2.25;;;;;;;10.01;100.00;101544.59;5067522;28;20102;-72
2022/08/06 00:41:14;;;;;;;9.32;2.35;;;;;;;9.96;100.00;101524.66;5075146;28;20119;-72
2022/08/06 00:43:41;;;;;;;4.40;1.83;;;;;;;9.83;100.00;101507.56;5075717;28;20475;-72
2022/08/06 00:46:07;;;;;;;4.75;2.20;;;;;;;9.73;100.00;101496.47;5073203;28;20032;-72
2022/08/06 00:48:32;;;;;;;9.98;2.22;;;;;;;9.98;100.00;101539.44;5056134;28;20025;-72
2022/08/06 00:50:57;;;;;;;3.60;1.85;;;;;;;9.71;100.00;101506.13;5070926;28;20023;-72
2022/08/06 00:53:23;;;;;;;7.45;2.40;;;;;;;9.90;100.00;101541.44;5056242;28;20526;-72
2022/08/06 00:55:48;;;;;;;3.67;2.05;;;;;;;9.84;100.00;101535.50;5069414;28;20137;-72
2022/08/06 00:58:14;;;;;;;6.40;2.40;;;;;;;9.74;100.00;101524.41;5071451;28;20047;-72
2022/08/06 01:00:39;;;;;;;6.07;2.30;;;;;;;9.83;100.00;101534.66;5065359;28;20035;-72
2022/08/06 01:03:05;;;;;;;5.95;2.63;;;;;;;9.72;100.00;101524.47;5059075;28;20455;-72
2022/08/06 01:05:30;;;;;;;6.07;2.05;;;;;;;9.76;100.00;101535.75;5055596;28;20466;-72
2022/08/06 01:07:55;;;;;;;5.80;2.10;;;;;;;9.78;100.00;101547.03;5055933;28;20043;-72
2022/08/06 01:10:22;;;;;;;3.25;1.70;;;;;;;9.74;100.00;101548.03;5071724;28;20031;-72
2022/08/06 01:12:47;;;;;;;6.63;2.15;;;;;;;9.74;100.00;101561.16;5075530;28;20061;-72
2022/08/06 01:15:12;;;;;;;5.22;2.17;;;;;;;9.56;100.00;101541.56;5078835;28;20424;-72
2022/08/06 01:17:55;;;;;;;6.97;2.58;;;;;;;9.62;100.00;101557.13;5058760;28;20021;-72
2022/08/06 01:20:36;;;;;;;5.32;2.38;;;;;;;9.68;100.00;101561.31;5047329;28;20111;-72
2022/08/06 01:23:11;;;;;;;5.30;2.30;;;;;;;9.65;100.00;101556.16;5081121;28;20032;-72
2022/08/06 01:26:07;;;;;;;5.22;2.42;;;;;;;9.75;100.00;101561.13;5072670;28;20420;-72
2022/08/06 01:28:35;;;;;;;9.38;2.92;;;;;;;9.73;100.00;101560.28;5055255;28;20040;-72
2022/08/06 01:31:09;;;;;;;4.97;2.33;;;;;;;9.53;100.00;101541.59;5075000;28;20020;-72
2022/08/06 01:33:46;;;;;;;6.47;2.22;;;;;;;9.70;100.00;101567.38;5065098;28;20016;-72
2022/08/06 01:36:16;;;;;;;4.90;2.42;;;;;;;9.62;100.00;101549.25;5055520;28;20024;-72
2022/08/06 01:38:45;;;;;;;9.27;2.42;;;;;;;9.71;100.00;101571.72;5055046;28;20028;-72
2022/08/06 01:41:14;;;;;;;4.68;2.58;;;;;;;9.62;100.00;101556.25;5053495;28;20111;-72
2022/08/06 01:43:58;;;;;;;8.40;2.70;;;;;;;9.37;100.00;101518.47;5087047;28;20039;-72
2022/08/06 01:46:24;;;;;;;5.25;2.75;;;;;;;9.59;100.00;101558.97;5072861;28;20390;-72
2022/08/06 01:48:50;;;;;;;12.93;2.58;;;;;;;9.53;100.00;101557.34;5060297;28;20121;-72
2022/08/06 01:51:15;;;;;;;9.77;2.55;;;;;;;9.55;100.00;101566.06;5051378;28;20066;-72
2022/08/06 01:53:41;;;;;;;6.32;2.33;;;;;;;9.46;100.00;101549.72;5051062;28;20029;-72
2022/08/06 01:56:08;;;;;;;6.22;2.35;;;;;;;9.48;100.00;101554.00;5074128;28;20066;-72
2022/08/06 01:58:38;;;;;;;5.50;2.38;;;;;;;9.35;100.00;101538.63;5055929;28;20039;-72
2022/08/06 02:01:07;;;;;;;5.07;2.38;;;;;;;9.57;100.00;101558.13;5072087;28;20463;-72
2022/08/06 02:03:53;;;;;;;8.75;2.47;;;;;;;9.58;100.00;101567.72;5055207;28;20024;-72
2022/08/06 02:06:23;;;;;;;7.75;2.97;;;;;;;9.67;100.00;101572.72;5074538;28;20111;-72
2022/08/06 02:08:49;;;;;;;6.97;2.78;;;;;;;9.65;100.00;101577.16;5103814;28;20020;-72
2022/08/06 02:11:14;;;;;;;8.98;3.35;;;;;;;9.49;100.00;101566.22;5087994;28;20111;-72
2022/08/06 02:13:41;;;;;;;6.00;2.53;;;;;;;9.48;100.00;101571.50;5054962;28;20056;-72
2022/08/06 02:16:07;;;;;;;3.97;2.28;;;;;;;9.48;100.00;101571.50;5051513;28;20036;-72
2022/08/06 02:18:37;;;;;;;6.80;2.53;;;;;;;9.56;100.00;101582.66;5064089;28;20070;-72
2022/08/06 02:21:06;;;;;;;6.22;3.20;;;;;;;9.35;100.00;101555.25;5057577;28;20044;-72
2022/08/06 02:23:32;;;;;;;6.05;3.22;;;;;;;9.52;100.00;101581.03;5082957;28;20027;-72
2022/08/06 02:25:59;;;;;;;14.23;2.70;;;;;;;9.52;100.00;101586.28;5054321;28;20544;-72
2022/08/06 02:28:26;;;;;;;7.35;3.13;;;;;;;9.46;100.00;101576.78;5074312;28;20074;-72
2022/08/06 02:30:53;;;;;;;4.93;2.42;;;;;;;9.44;100.00;101578.59;5060316;28;20029;-72
2022/08/06 02:33:19;;;;;;;9.40;2.83;;;;;;;9.35;100.00;101570.13;5067649;28;20051;-72
2022/08/06 02:35:48;;;;;;;4.85;2.67;;;;;;;9.46;100.00;101592.53;5066663;28;20493;-72
2022/08/06 02:38:25;;;;;;;5.82;2.80;;;;;;;9.29;100.00;101552.78;5092170;28;20075;-73
2022/08/06 02:41:01;;;;;;;5.78;2.83;;;;;;;9.31;100.00;101565.84;5077756;28;20052;-72
2022/08/06 02:43:35;;;;;;;5.55;2.58;;;;;;;9.36;100.00;101571.84;5070568;28;20028;-72
2022/08/06 02:46:11;;;;;;;5.93;2.03;;;;;;;9.18;100.00;101544.34;5065337;28;20021;-72
2022/08/06 02:48:52;;;;;;;5.78;2.55;;;;;;;9.35;100.00;101572.72;5066812;28;20043;-73
2022/08/06 02:51:21;;;;;;;11.40;3.08;;;;;;;9.35;100.00;101578.84;5069205;28;20024;-72
2022/08/06 02:54:03;;;;;;;6.95;2.83;;;;;;;9.33;100.00;101588.50;5060865;28;20211;-72
2022/08/06 02:56:30;;;;;;;5.60;2.63;;;;;;;9.27;100.00;101588.66;5074338;28;20024;-72
2022/08/06 02:58:57;;;;;;;5.70;2.30;;;;;;;9.30;100.00;101595.59;5077268;28;20035;-72
2022/08/06 03:01:28;;;;;;;9.23;2.80;;;;;;;9.07;100.00;101562.94;5074489;28;20016;-72
2022/08/06 03:03:55;;;;;;;5.07;2.95;;;;;;;9.23;100.00;101598.38;5088771;28;20039;-72
2022/08/06 03:06:23;;;;;;;4.55;2.97;;;;;;;9.19;100.00;101588.84;5104480;28;20039;-72
2022/08/06 03:08:51;;;;;;;7.38;2.72;;;;;;;9.02;100.00;101572.69;5077037;28;20496;-72
2022/08/06 03:11:17;;;;;;;6.15;2.53;;;;;;;9.10;100.00;101591.72;5074484;28;20024;-72
2022/08/06 03:13:43;;;;;;;3.17;2.15;;;;;;;9.16;100.00;101603.78;5075238;28;20097;-72
2022/08/06 03:16:09;;;;;;;6.72;2.63;;;;;;;9.07;100.00;101594.41;5092936;28;20031;-72
2022/08/06 03:18:36;;;;;;;5.10;2.75;;;;;;;9.09;100.00;101603.09;5072156;28;20029;-72
2022/08/06 03:21:02;;;;;;;5.60;3.00;;;;;;;9.05;100.00;101601.47;5061083;28;20024;-72
2022/08/06 03:23:29;;;;;;;10.55;3.38;;;;;;;8.96;100.00;101598.19;5077419;28;20478;-72
2022/08/06 03:25:55;;;;;;;5.63;2.45;;;;;;;8.81;100.00;101575.84;5071084;28;20028;-72
2022/08/06 03:28:20;;;;;;;5.78;2.83;;;;;;;8.86;100.00;101594.94;5101821;28;20020;-73
2022/08/06 03:30:46;;;;;;;4.80;2.50;;;;;;;8.79;100.00;101597.75;5068509;28;20097;-72
2022/08/06 03:33:13;;;;;;;5.47;2.50;;;;;;;8.95;100.00;101610.47;5075549;28;20050;-72
2022/08/06 03:35:39;;;;;;;6.97;2.92;;;;;;;8.75;100.00;101585.63;5093295;28;20111;-72
2022/08/06 03:38:09;;;;;;;4.45;2.60;;;;;;;8.90;100.00;101606.19;5060054;28;20021;-72
2022/08/06 03:40:36;;;;;;;5.15;2.30;;;;;;;8.88;100.00;101619.38;5065875;28;20115;-72
2022/08/06 03:43:01;;;;;;;10.50;2.97;;;;;;;8.75;100.00;101603.97;5105935;28;20031;-72
2022/08/06 03:45:28;;;;;;;6.15;3.13;;;;;;;8.76;100.00;101622.25;5062308;28;20019;-72
2022/08/06 03:47:55;;;;;;;9.02;3.70;;;;;;;8.57;100.00;101597.38;5057360;28;20024;-72
2022/08/06 03:50:25;;;;;;;7.70;3.13;;;;;;;8.67;100.00;101636.44;5076869;28;20024;-72
2022/08/06 03:52:54;;;;;;;5.35;3.33;;;;;;;8.58;100.00;101625.31;5068756;28;20032;-72
2022/08/06 03:55:23;;;;;;;8.70;4.13;;;;;;;8.53;100.00;101621.91;5071464;28;20023;-72
2022/08/06 03:57:52;;;;;;;5.68;3.60;;;;;;;8.51;100.00;101610.63;5069466;28;20025;-73
2022/08/06 04:00:19;;;;;;;8.63;3.78;;;;;;;8.53;100.00;101621.91;5073133;28;20125;-72
2022/08/06 04:02:46;;;;;;;6.70;3.45;;;;;;;8.43;100.00;101600.31;5096590;28;20032;-72
2022/08/06 04:05:20;;;;;;;10.15;3.20;;;;;;;8.57;100.00;101631.44;5067544;28;20024;-72
2022/08/06 04:07:47;;;;;;;9.98;3.38;;;;;;;8.58;100.00;101638.41;5064766;28;20097;-72
2022/08/06 04:10:12;;;;;;;8.75;3.40;;;;;;;8.55;100.00;101626.22;5109212;28;20032;-72
2022/08/06 04:12:38;;;;;;;7.20;3.53;;;;;;;8.41;100.00;101607.34;5060395;28;20493;-72
2022/08/06 04:15:05;;;;;;;5.55;3.20;;;;;;;8.46;100.00;101612.47;5100741;28;20494;-72
2022/08/06 04:17:31;;;;;;;5.15;2.78;;;;;;;8.57;100.00;101634.91;5041392;28;20032;-72
2022/08/06 04:19:58;;;;;;;6.18;3.05;;;;;;;8.50;100.00;101624.59;5050178;28;20046;-72
2022/08/06 04:22:23;;;;;;;4.30;2.45;;;;;;;8.07;100.00;101552.19;5065728;28;20020;-72
2022/08/06 04:24:49;;;;;;;6.22;3.03;;;;;;;8.53;100.00;101638.50;5072584;28;20486;-72
2022/08/06 04:27:15;;;;;;;12.20;3.50;;;;;;;8.59;100.00;101642.72;5073896;28;20028;-72
2022/08/06 04:29:42;;;;;;;6.45;3.45;;;;;;;8.23;100.00;101578.91;5040976;28;20044;-73
2022/08/06 04:32:07;;;;;;;5.07;3.25;;;;;;;8.55;100.00;101638.47;5060405;28;20060;-72
2022/08/06 04:34:34;;;;;;;6.07;3.45;;;;;;;8.57;100.00;101636.66;5085562;28;20470;-73
2022/08/06 04:37:00;;;;;;;8.98;3.75;;;;;;;8.58;100.00;101641.03;5058742;28;20116;-72
2022/08/06 04:39:26;;;;;;;5.13;3.15;;;;;;;8.46;100.00;101612.47;5043112;28;20043;-73
2022/08/06 04:41:53;;;;;;;6.03;3.30;;;;;;;8.67;100.00;101651.28;5058578;28;20037;-73
2022/08/06 04:44:19;;;;;;;5.43;3.03;;;;;;;8.72;100.00;101650.28;5071936;28;20032;-72
2022/08/06 04:46:48;;;;;;;6.82;3.63;;;;;;;8.73;100.00;101657.25;5091722;28;20612;-73
2022/08/06 04:49:17;;;;;;;8.13;3.78;;;;;;;8.72;100.00;101650.28;5058853;28;20136;-72
2022/08/06 04:51:48;;;;;;;10.88;4.00;;;;;;;8.55;100.00;101615.72;5092057;28;20379;-72
2022/08/06 04:54:15;;;;;;;7.28;3.83;;;;;;;8.68;100.00;101639.91;5056004;28;20100;-72
2022/08/06 04:56:41;;;;;;;8.48;4.32;;;;;;;8.82;100.00;101658.78;5087892;28;20437;-72
2022/08/06 04:59:06;;;;;;;8.77;4.03;;;;;;;8.91;100.00;101658.59;5093639;28;20016;-73
2022/08/06 05:01:32;;;;;;;5.75;3.08;;;;;;;8.97;100.00;101674.19;5075780;28;20027;-73
2022/08/06 05:03:57;;;;;;;7.30;4.13;;;;;;;8.72;100.00;101633.69;5087809;28;20036;-73
2022/08/06 05:06:43;;;;;;;5.03;4.13;;;;;;;9.00;100.00;101670.63;5075651;28;20027;-73
2022/08/06 05:09:11;;;;;;;7.95;4.03;;;;;;;9.07;100.00;101678.31;5049933;28;20039;-73
2022/08/06 05:11:51;;;;;;;7.55;4.53;;;;;;;9.15;100.00;101672.91;5103673;28;20046;-73
2022/08/06 05:14:21;;;;;;;8.85;4.15;;;;;;;9.17;100.00;101665.84;5098910;28;20029;-73
2022/08/06 05:16:48;;;;;;;7.07;4.00;;;;;;;9.10;100.00;101641.53;5057046;28;20051;-73
2022/08/06 05:19:21;;;;;;;5.38;3.97;;;;;;;9.39;100.00;101671.44;5048987;28;20063;-73
2022/08/06 05:21:47;;;;;;;5.80;4.38;;;;;;;9.41;100.00;101657.38;5069693;28;20056;-73
2022/08/06 05:24:13;;;;;;;10.23;4.03;;;;;;;9.61;100.00;101680.47;5062968;28;20057;-73
2022/08/06 05:26:38;;;;;;;6.78;4.13;;;;;;;9.73;100.00;101674.94;5037296;28;20936;-73
2022/08/06 05:29:04;;;;;;;8.15;4.72;;;;;;;9.29;100.00;101576.38;5005503;28;20086;-73
2022/08/06 05:31:31;;;;;;;13.70;5.20;;;;;;;9.87;100.00;101646.53;5043045;28;20347;-72
2022/08/06 05:33:56;;;;;;;9.60;5.18;;;;;;;10.17;100.00;101661.47;5103793;28;20036;-72
2022/08/06 05:36:21;;;;;;;10.75;4.93;;;;;;;10.36;100.00;101650.44;5069395;28;20031;-72
2022/08/06 05:38:47;;;;;;;7.68;4.70;;;;;;;10.58;100.00;101662.03;5054267;28;20430;-72
2022/08/06 05:41:12;;;;;;;8.13;4.20;;;;;;;10.90;100.00;101672.44;5066876;28;20038;-72
2022/08/06 05:43:39;;;;;;;7.10;3.55;;;;;;;11.05;100.00;101674.56;5060026;28;20142;-72
2022/08/06 05:46:08;;;;;;;8.80;3.47;;;;;;;11.33;100.00;101685.09;5075121;28;20028;-72
2022/08/06 05:48:38;;;;;;;9.38;3.30;;;;;;;11.52;100.00;101686.22;5054747;28;20036;-72
2022/08/06 05:51:11;;;;;;;12.40;2.88;;;;;;;11.50;100.00;101661.69;5059373;28;20032;-72
2022/08/06 05:53:49;;;;;;;9.63;3.33;;;;;;;11.79;100.00;101687.91;5091872;28;20039;-72
2022/08/06 05:56:22;;;;;;;6.15;3.00;;;;;;;11.84;100.00;101671.09;5089046;28;20051;-72
2022/08/06 05:58:56;;;;;;;9.15;3.10;;;;;;;12.01;100.00;101687.19;5063754;28;20032;-72
2022/08/06 06:01:22;;;;;;;4.18;2.38;;;;;;;12.10;100.00;101692.97;5049759;28;20025;-72
2022/08/06 06:03:49;;;;;;;12.80;3.17;;;;;;;12.24;100.00;101705.66;5060769;28;20057;-72
2022/08/06 06:06:14;;;;;;;4.72;2.22;;;;;;;12.29;100.00;101691.41;5054157;28;20021;-72
2022/08/06 06:08:41;;;;;;;5.80;2.63;;;;;;;12.32;100.00;101679.91;5039491;28;20043;-72
2022/08/06 06:11:07;;;;;;;8.85;2.80;;;;;;;12.25;100.00;101645.00;5099722;28;20387;-72
2022/08/06 06:13:33;;;;;;;12.48;2.65;;;;;;;12.46;100.00;101661.78;5065958;28;20031;-72
2022/08/06 06:16:23;;;;;;;5.45;2.67;;;;;;;12.82;100.00;101707.84;5054372;28;20032;-73
2022/08/06 06:19:11;;;;;;;8.02;2.58;;;;;;;13.03;100.00;101700.03;5087555;28;20032;-72
2022/08/06 06:21:43;;;;;;;10.30;2.60;;;;;;;13.17;100.00;101708.28;5072423;28;20066;-72
2022/08/06 06:24:17;;;;;;;5.07;2.33;;;;;;;13.16;100.00;101681.03;5086021;28;20029;-72
2022/08/06 06:26:54;;;;;;;8.40;2.13;;;;;;;13.48;100.00;101716.69;5065155;28;20028;-72
2022/08/06 06:29:20;;;;;;;3.65;2.08;;;;;;;13.60;100.00;101713.53;5106059;28;20021;-72
2022/08/06 06:31:54;;;;;;;4.32;1.73;;;;;;;13.75;100.00;101717.34;5066265;28;20024;-72
2022/08/06 06:34:21;;;;;;;;;;;;;;;13.92;100.00;101720.13;5067999;28;20024;-72
2022/08/06 06:37:03;;;;;;;17.88;2.20;;;;;;;14.06;100.00;101720.38;5072802;28;19951;-72
2022/08/06 06:39:45;;;;;;;5.88;1.95;;;;;;;14.11;100.00;101718.41;5068290;28;20032;-72
2022/08/06 06:42:17;;;;;;;6.93;1.80;;;;;;;14.26;100.00;101717.72;5062931;28;20024;-72
2022/08/06 06:44:50;;;;;;;4.55;1.67;;;;;;;14.26;100.00;101704.47;5059149;28;20063;-72
2022/08/06 06:47:36;;;;;;;10.07;2.13;;;;;;;14.35;100.00;101703.25;5073413;28;20035;-72
2022/08/06 06:50:11;;;;;;;3.92;1.38;;;;;;;14.36;100.00;101704.13;5056601;28;20040;-72
2022/08/06 06:52:42;;;;;;;3.58;1.40;;;;;;;14.58;100.00;101736.59;5046295;28;20043;-72
2022/08/06 06:55:24;;;;;;;4.25;1.65;;;;;;;14.66;100.00;101739.78;5057882;28;20020;-72
2022/08/06 06:57:58;;;;;;;2.30;1.15;;;;;;;14.65;100.00;101727.47;5084087;28;20024;-73
2022/08/06 07:00:23;;;;;;;;;;;;;;;14.76;100.00;101739.28;5055149;28;20051;-72
2022/08/06 07:02:51;;;;;;;4.07;1.40;;;;;;;14.69;100.00;101718.47;5057522;28;20355;-72
2022/08/06 07:05:16;;;;;;;4.15;1.20;;;;;;;14.81;100.00;101728.47;5052897;28;20021;-72
2022/08/06 07:07:43;;;;;;;3.80;1.17;;;;;;;14.88;100.00;101739.63;5057646;28;20020;-72
2022/08/06 07:10:10;;;;;;;10.93;1.55;;;;;;;14.80;100.00;101732.06;5054109;28;20025;-72
2022/08/06 07:12:36;;;;;;;6.28;1.42;;;;;;;14.76;100.00;101727.84;5067774;28;20383;-72
2022/08/06 07:15:04;;;;;;;4.85;1.90;;;;;;;14.88;100.00;101743.13;5063805;28;20032;-72
2022/08/06 07:17:31;;;;;;;4.30;1.05;;;;;;;14.93;100.00;101756.16;5106643;28;20072;-72
2022/08/06 07:19:57;;;;;;;3.95;1.23;;;;;;;14.83;100.00;101745.16;5073446;28;20024;-72
2022/08/06 07:22:24;;;;;;;7.30;1.25;;;;;;;14.86;100.00;101744.16;5053549;28;20170;-72
2022/08/06 07:24:59;;;;;;;2.20;0.80;;;;;;;14.97;100.00;101755.09;5094833;28;20081;-72
2022/08/06 07:27:33;;;;;;;3.58;1.27;;;;;;;14.99;100.00;101748.81;5084383;28;20032;-73
2022/08/06 07:30:00;;;;;;;3.97;1.45;;;;;;;15.13;100.00;101750.81;5037989;28;20033;-73
2022/08/06 07:32:25;;;;;;;8.82;1.67;;;;;;;15.08;100.00;101737.78;5048749;28;20520;-72
2022/08/06 07:34:52;;;;;;;4.07;1.15;;;;;;;15.31;100.00;101765.78;5041472;28;20024;-72
2022/08/06 07:37:20;;;;;;;4.40;1.25;;;;;;;15.34;100.00;101755.09;5061121;28;20099;-72
2022/08/06 07:39:46;;;;;;;3.40;1.05;;;;;;;15.41;100.00;101772.38;5054929;28;20035;-73
2022/08/06 07:42:13;;;;;;;3.95;1.02;;;;;;;15.45;100.00;101768.66;5057449;28;20024;-72
2022/08/06 07:44:43;;;;;;;3.97;1.50;;;;;;;15.46;100.00;101759.78;5071024;28;20485;-72
2022/08/06 07:47:12;;;;;;;3.47;1.42;;;;;;;15.57;100.00;101770.75;5075443;28;20032;-72
2022/08/06 07:49:41;;;;;;;5.88;1.25;;;;;;;15.50;100.00;101747.28;5062834;28;20044;-72
2022/08/06 07:52:07;;;;;;;4.03;1.23;;;;;;;15.78;100.00;101782.09;5110982;28;20042;-72
2022/08/06 07:54:32;;;;;;;4.68;1.15;;;;;;;15.83;100.00;101772.09;5059230;28;20518;-72
2022/08/06 07:56:58;;;;;;;3.33;1.20;;;;;;;15.86;100.00;101758.69;5068571;28;20099;-72
2022/08/06 07:59:25;;;;;;;4.90;1.20;;;;;;;16.05;100.00;101780.72;5056907;28;20040;-72
2022/08/06 08:01:51;;;;;;;2.55;0.90;;;;;;;16.05;100.00;101774.53;5056615;28;20390;-72
2022/08/06 08:07:03;;;;;;;3.33;1.02;;;;;;;16.16;100.00;101765.09;5071625;28;20505;-72
2022/08/06 08:09:30;;;;;;;3.67;1.20;;;;;;;16.26;100.00;101768.13;5071798;28;20032;-72
2022/08/06 08:11:56;;;;;;;3.03;1.13;;;;;;;16.34;100.00;101766.78;5060156;28;20037;-73
2022/08/06 08:14:22;;;;;;;4.28;1.30;;;;;;;16.42;100.00;101792.94;5065760;28;20111;-73
2022/08/06 08:16:49;;;;;;;3.53;1.27;;;;;;;16.41;100.00;101787.69;5074843;28;20431;-73
2022/08/06 08:19:32;;;;;;;3.17;1.05;;;;;;;16.30;100.00;101765.22;5088555;28;20050;-73
2022/08/06 08:22:00;;;;;;;4.78;1.13;;;;;;;16.46;100.00;101783.03;5057319;28;20792;-73
2022/08/06 08:24:27;;;;;;;5.60;1.23;;;;;;;16.49;100.00;101785.50;5109613;28;20024;-74
2022/08/06 08:26:54;;;;;;;7.85;1.42;;;;;;;16.14;100.00;101713.94;5108720;28;20032;-73
2022/08/06 08:29:19;;;;;;;4.38;1.13;;;;;;;16.44;100.00;101739.78;5056387;28;20032;-73
2022/08/06 08:31:45;;;;;;;4.47;1.20;;;;;;;16.82;100.00;101763.38;5067694;28;20028;-73
2022/08/06 08:34:11;;;;;;;3.13;1.00;;;;;;;17.00;100.00;101761.47;5051543;28;20063;-73
2022/08/06 08:36:37;;;;;;;4.88;1.45;;;;;;;17.10;100.00;101761.84;5071072;28;20093;-73
2022/08/06 08:39:03;;;;;;;3.35;1.58;;;;;;;16.95;100.00;101747.63;5074048;28;20044;-74
2022/08/06 08:41:34;;;;;;;8.05;1.55;;;;;;;16.96;100.00;101775.91;5072844;28;20036;-74
2022/08/06 08:44:02;;;;;;;4.35;1.23;;;;;;;16.88;100.00;101753.34;5109778;28;20476;-73
2022/08/06 08:46:32;;;;;;;3.78;1.58;;;;;;;16.97;100.00;101761.66;5067715;28;20050;-73
2022/08/06 08:49:02;;;;;;;5.28;1.17;;;;;;;16.96;100.00;101765.28;5060369;28;20165;-73
2022/08/06 08:51:28;;;;;;;5.03;1.10;;;;;;;16.88;100.00;101746.25;5087929;28;20120;-74
2022/08/06 08:53:55;;;;;;;7.22;0.95;;;;;;;17.02;100.00;101754.31;5071929;28;20017;-73
2022/08/06 08:56:21;;;;;;;3.75;1.63;;;;;;;17.17;100.00;101748.13;5050109;28;20038;-73
2022/08/06 08:58:48;;;;;;;3.67;1.15;;;;;;;17.37;100.00;101745.19;5059250;28;20056;-73
2022/08/06 09:01:13;;;;;;;3.70;1.27;;;;;;;17.34;100.00;101712.63;5073441;28;20024;-73
2022/08/06 09:03:39;;;;;;;2.80;1.20;;;;;;;17.80;100.00;101764.91;5054915;28;20037;-72
2022/08/06 09:06:06;;;;;;;2.55;0.93;;;;;;;17.78;100.00;101747.31;5059092;28;20024;-72
2022/08/06 09:08:32;;;;;;;3.35;1.45;;;;;;;17.86;100.00;101763.69;5060523;28;20041;-73
2022/08/06 09:10:58;;;;;;;4.18;1.25;;;;;;;17.42;100.00;101698.91;5068278;28;20407;-74
2022/08/06 09:13:24;;;;;;;5.13;2.03;;;;;;;17.60;100.00;101737.75;5096293;28;20027;-74
2022/08/06 09:15:51;;;;;;;2.70;0.98;;;;;;;17.67;100.00;101769.22;5078225;28;20032;-74
2022/08/06 09:18:16;;;;;;;2.63;1.02;;;;;;;17.74;100.00;101759.94;5073915;28;20475;-73
2022/08/06 09:20:42;;;;;;;3.38;1.10;;;;;;;17.42;100.00;101704.22;5056605;28;20040;-73
2022/08/06 09:23:07;;;;;;;3.22;1.15;;;;;;;17.91;100.00;101761.63;5063909;28;20024;-73
2022/08/06 09:25:43;;;;;;;2.17;0.80;;;;;;;17.92;100.00;101763.31;5071795;28;20102;-74
2022/08/06 09:28:10;;;;;;;2.58;1.13;;;;;;;17.87;100.00;101773.38;5062370;28;20115;-74
2022/08/06 09:30:36;;;;;;;2.17;0.75;;;;;;;17.53;100.00;101760.28;5064448;28;20031;-74
2022/08/06 09:33:02;;;;;;;1.90;0.73;;;;;;;17.28;100.00;101759.03;5056617;28;20028;-73
2022/08/06 09:35:29;;;;;;;3.17;0.82;;;;;;;17.17;100.00;101777.34;5072557;28;20524;-73
2022/08/06 09:38:05;;;;;;;5.75;1.25;;;;;;;17.06;100.00;101773.59;5056699;28;20363;-73
2022/08/06 09:40:30;;;;;;;4.15;1.25;;;;;;;16.99;100.00;101773.06;5062896;28;20027;-73
2022/08/06 09:42:56;;;;;;;3.20;1.13;;;;;;;16.87;100.00;101760.44;5071761;28;20024;-73
2022/08/06 09:45:23;;;;;;;5.97;1.27;;;;;;;16.98;100.00;101775.78;5060227;28;20016;-74
2022/08/06 09:47:59;;;;;;;2.35;0.75;;;;;;;16.90;100.00;101773.56;5095223;28;20035;-73
2022/08/06 09:50:44;;;;;;;3.72;1.30;;;;;;;16.83;100.00;101764.22;5090825;28;20035;-74
2022/08/06 09:53:12;;;;;;;9.13;1.02;;;;;;;16.83;100.00;101764.22;5088630;28;20035;-73
2022/08/06 09:55:37;;;;;;;4.03;0.93;;;;;;;16.95;100.00;101774.16;5054538;28;20372;-73
2022/08/06 09:58:03;;;;;;;2.75;0.90;;;;;;;16.96;100.00;101781.22;5074018;28;20029;-74
2022/08/06 10:00:33;;;;;;;1.77;0.80;;;;;;;16.99;100.00;101781.03;5087220;28;20053;-74
2022/08/06 10:03:02;;;;;;;2.47;0.75;;;;;;;17.18;100.00;101780.88;5087724;28;20036;-72
2022/08/06 10:05:28;;;;;;;2.28;0.90;;;;;;;17.46;100.00;101774.88;5068114;28;20073;-73
2022/08/06 10:08:14;;;;;;;2.17;0.82;;;;;;;17.71;100.00;101767.25;5091883;28;20032;-74
2022/08/06 10:10:44;;;;;;;2.03;0.80;;;;;;;17.98;100.00;101768.28;5092073;28;20095;-73
2022/08/06 10:13:15;;;;;;;2.85;1.10;;;;;;;18.36;100.00;101785.47;5048723;28;20466;-74
2022/08/06 10:15:42;;;;;;;4.13;1.27;;;;;;;18.08;100.00;101732.19;5051661;28;20056;-74
2022/08/06 10:18:07;;;;;;;1.90;0.65;;;;;;;18.19;100.00;101755.50;5065421;28;20028;-75
2022/08/06 10:20:33;;;;;;;6.75;0.98;;;;;;;18.02;100.00;101751.19;5073631;28;20043;-74
2022/08/06 10:22:58;;;;;;;3.05;0.95;;;;;;;17.96;100.00;101764.84;5067401;28;20103;-74
2022/08/06 10:25:25;;;;;;;1.30;0.47;;;;;;;17.93;100.00;101765.03;5060945;28;20024;-74
2022/08/06 10:27:53;;;;;;;2.92;0.75;;;;;;;18.06;100.00;101776.66;5097186;28;20028;-74
2022/08/06 10:30:20;;;;;;;2.08;0.90;;;;;;;17.89;99.46;101758.19;5093456;28;20025;-75
2022/08/06 10:32:49;;;;;;;2.20;0.80;;;;;;;17.97;100.00;101755.06;5086198;28;20028;-73
2022/08/06 10:35:22;;;;;;;2.88;0.70;;;;;;;18.03;95.98;101755.56;5054751;28;20813;-74
2022/08/06 10:37:58;;;;;;;5.33;1.40;;;;;;;18.24;99.20;101764.94;5062912;28;20035;-74
2022/08/06 10:40:26;;;;;;;1.33;0.45;;;;;;;18.28;96.33;101749.66;5070143;28;20111;-73
2022/08/06 10:42:51;;;;;;;2.42;0.88;;;;;;;18.42;95.49;101764.78;5071359;28;20035;-74
2022/08/06 10:45:17;;;;;;;6.22;1.38;;;;;;;18.45;99.40;101769.91;5060312;28;20024;-73
2022/08/06 10:47:45;;;;;;;4.30;1.10;;;;;;;18.59;100.00;101756.66;5082723;28;20029;-74
2022/08/06 10:50:12;;;;;;;4.47;1.50;;;;;;;18.71;100.00;101745.22;5091888;28;20031;-74
2022/08/06 10:52:37;;;;;;;2.85;1.10;;;;;;;18.84;97.56;101744.34;5063302;28;20479;-72
2022/08/06 10:55:06;;;;;;;3.17;1.30;;;;;;;19.17;95.16;101760.00;5085896;28;20059;-74
2022/08/06 10:57:32;;;;;;;5.82;1.33;;;;;;;19.17;97.14;101738.69;5072165;28;20048;-75
2022/08/06 10:59:58;;;;;;;3.58;1.30;;;;;;;19.32;99.16;101764.34;5071985;28;20056;-76
2022/08/06 11:02:45;;;;;;;2.92;0.90;;;;;;;19.02;96.54;101762.78;5041667;28;20112;-74
2022/08/06 11:05:23;;;;;;;3.03;1.23;;;;;;;18.59;95.93;101761.97;5057347;28;20467;-75
2022/08/06 11:07:57;;;;;;;2.83;1.27;;;;;;;18.51;98.83;101761.56;5053571;28;20123;-74
2022/08/06 11:10:25;;;;;;;3.65;0.95;;;;;;;18.75;92.75;101757.41;5084221;28;20031;-74
2022/08/06 11:12:56;;;;;;;2.38;0.73;;;;;;;18.91;91.04;101750.16;5089649;28;20027;-75
2022/08/06 11:15:22;;;;;;;7.55;1.33;;;;;;;19.15;89.15;101742.41;5065871;28;20035;-74
2022/08/06 11:17:49;;;;;;;3.08;1.05;;;;;;;19.42;87.33;101745.13;5071589;28;20390;-75
2022/08/06 11:20:36;;;;;;;4.28;1.33;;;;;;;19.65;88.34;101741.78;5084466;28;20419;-75
2022/08/06 11:23:26;;;;;;;1.42;0.70;;;;;;;19.77;85.07;101751.66;5075303;28;20047;-75
2022/08/06 11:25:55;;;;;;;2.53;1.02;;;;;;;19.57;86.27;101739.63;5053914;28;20081;-74
2022/08/06 11:28:40;;;;;;;2.55;1.02;;;;;;;19.80;90.62;101727.44;5051003;28;20884;-73
2022/08/06 11:31:07;;;;;;;3.55;0.90;;;;;;;20.44;86.03;101744.41;5067117;28;20033;-74
2022/08/06 11:33:32;;;;;;;1.65;0.75;;;;;;;20.79;87.64;101742.75;5055519;28;20016;-74